AirNav   ATP
 
 1277 users online  

N27 Bradford County Airport
Towanda, Pennsylvania, USA

GOING TO TOWANDA?


FAA INFORMATION EFFECTIVE 12 OCTOBER 2017

Location

FAA Identifier: N27
Lat/Long: 41-44-24.0000N / 076-26-49.7000W
41-44.400000N / 076-26.828333W
41.7400000 / -76.4471389
(estimated)
Elevation: 730.1 ft. / 222.5 m (surveyed)
Variation: 12W (2000)
From city: 2 miles S of TOWANDA, PA
Time zone: UTC -4 (UTC -5 during Standard Time)
Zip code: 18848

Airport Operations

Airport use: Open to the public
Activation date: 07/1938
Control tower: no
ARTCC: NEW YORK CENTER
FSS: WILLIAMSPORT FLIGHT SERVICE STATION
NOTAMs facility: IPT (NOTAM-D service available)
Attendance: 0800-1700
FOR SVC AFTER HRS CALL 570-637-4902 OR 570-529-1165.
Wind indicator: lighted
Segmented circle: yes
Lights: ACTVT HIRL AND REIL RY 05/23 - 123.0.
Beacon: white-green (lighted land airport)
Operates sunset to sunrise.

Airport Communications

CTAF/UNICOM: 123.0
WX AWOS-3: 119.925 (570-265-1024)
BINGHAMTON APPROACH: 118.6
BINGHAMTON DEPARTURE: 118.6
  • APCH/DEP SERVICE PRVDD BY NEW YORK ARTCC ON FREQS 132.175/298.9 (ELK MOUNTAIN RCAG) WHEN BINGHAMTON APCH CTL CLOSED.

Nearby radio navigation aids

VOR radial/distance  VOR name  Freq  Var
FQMr040/28.2WILLIAMSPORT VOR/DME114.4009W
CFBr219/28.6BINGHAMTON VOR/DME112.2010W
ULWr141/33.4ELMIRA VOR/DME109.6512W

 
NDB name  Hdg/Dist  Freq  Var  ID
PICTURE ROCKS032/30.234409WPIX .--. .. -..-
ALPINE167/33.124512WALP .- .-.. .--.

Airport Services

Fuel available: 100LL JET-A
Parking: hangars and tiedowns
Airframe service: NONE
Powerplant service: NONE
Bottled oxygen: NONE
Bulk oxygen: NONE

Runway Information

Runway 5/23

Dimensions: 4300 x 75 ft. / 1311 x 23 m
Surface: asphalt, in fair condition
Weight bearing capacity: 
Single wheel: 12.0
Runway edge lights: high intensity
RUNWAY 5  RUNWAY 23
Latitude: 41-44.110788N41-44.690558N
Longitude: 076-27.099362W076-26.556710W
Elevation: 730.1 ft.715.5 ft.
Gradient: 0.7%0.3% UP
Traffic pattern: leftleft
Runway heading: 047 magnetic, 035 true227 magnetic, 215 true
Markings: nonprecision, in good conditionnonprecision, in good condition
Visual slope indicator: 2-light PAPI on left (3.00 degrees glide path)2-light PAPI on left (3.00 degrees glide path)
Runway end identifier lights: yesyes
Touchdown point: yes, no lightsyes, no lights
Obstructions: 109 ft. trees, 2444 ft. from runway, 300 ft. right of centerline, 20:1 slope to clearnone

Airport Ownership and Management from official FAA records

Ownership: Publicly-owned
Owner: BRADFORD COUNTY AIRPORT AUTHORITY
415 AIRPORT RD.
TOWANDA, PA 18848
Phone 570-265-4900
Manager: HEATHER BLOKZYL
415 AIRPORT RD.
TOWANDA, PA 18848
Phone 570-265-4900

Airport Operational Statistics

Aircraft based on the field: 27
Single engine airplanes: 26
Multi engine airplanes: 1
    
Aircraft operations: avg 63/day *
65% transient general aviation
35% local general aviation
<1% military
* for 12-month period ending 13 October 2016

Additional Remarks

ULTRALIGHT ACTIVITY ON AND INVOF.
COLD TEMPERATURE RESTRICTED AIRPORT. ALTITUDE CORRECTION REQUIRED AT OR BELOW -24C/-11F.

Instrument Procedures

NOTE: All procedures below are presented as PDF files. If you need a reader for these files, you should download the free Adobe Reader.

NOT FOR NAVIGATION. Please procure official charts for flight.
FAA instrument procedures published for use between 14 September 2017 at 0901Z and 9 November 2017 at 0900Z.

 
IAPs - Instrument Approach Procedures
RNAV (GPS) RWY 23   download (180KB)
RNAV (GPS)-A   download (174KB)
NOTE: Special Take-Off Minimums/Departure Procedures apply   download (149KB)

Other nearby airports with instrument procedures:

KCZG - Tri-Cities Airport (26 nm NE)
KELM - Elmira/Corning Regional Airport (32 nm NW)
9N3 - Seamans Field Airport (32 nm E)
KBGM - Greater Binghamton Airport/Edwin A Link Field (35 nm NE)
KIPT - Williamsport Regional Airport (37 nm SW)
 
Loc | Ops | Rwys | IFR | FBO | Links
Com | Nav | Svcs | Stats | Notes


 
Area around N27 (Bradford County Airport)
 
Road maps at: MapQuest Bing Google
 
Aerial photo
WARNING: Photo may not be current or correct
Aerial photo of N27 (Bradford County Airport)
looking southwest

Do you have a better or more recent aerial photo of Bradford County Airport that you would like to share? If so, please send us your photo.

 
Sectional chart

 
Airport distance calculator
Flying to Bradford County Airport? Find the distance to fly.

From to N27

Sunrise and sunset
Times for 23-Oct-2017
 Local
(UTC-4)
 Zulu
(UTC)
Morning civil twilight07:0011:00
Sunrise07:2811:28
Sunset18:1222:12
Evening civil twilight18:4022:40

Current date and time
Zulu (UTC)  23-Oct-2017 21:59:00
Local (UTC-4)  23-Oct-2017 17:59:00
 
METAR
KELM 
32nm NW 
232153Z AUTO 18007KT 150V230 10SM BKN036 BKN045 21/14 A2994 RMK AO2 SLP136 T02060144
KBGM 
35nm NE 
232153Z 16012G21KT 10SM FEW025 18/14 A3000 RMK AO2 SLP157 T01780139
KIPT 
36nm SW 
232154Z 10010KT 10SM FEW036 FEW060 22/16 A2993 RMK AO2 SLP133 T02170156
KAVP 
40nm SE 
232154Z 10SM FEW029 21/16 A3002 RMK AO2 SLP161 T02110156
KN38 
43nm W 
232135Z AUTO 16014G21KT 10SM BKN023 BKN028 OVC043 17/13 A2996 RMK AO2
KITH 
44nm N 
232056Z 16013G20KT 10SM SCT035 19/14 A2998 RMK AO2 SLP149 T01940139 56031
KHZL 
50nm SE 
232135Z AUTO 13009G19KT 10SM BKN020 BKN028 OVC039 19/15 A3007 RMK AO2
TAF
KELM 
32nm NW 
231758Z 2318/2418 19012G20KT P6SM OVC035 FM240200 19014G24KT P6SM OVC025 WS020/17040KT FM240600 19018G30KT 5SM -SHRA BR OVC015 WS020/17050KT FM241000 21009KT 3SM -SHRA BR OVC012 FM241500 21010KT P6SM SCT040
KBGM 
35nm NE 
231740Z 2318/2418 17015G22KT P6SM BKN035 OVC200 FM240400 16020G30KT P6SM BKN025 OVC040 FM240700 17020G30KT 4SM -SHRA BR OVC015 FM241200 18010KT 4SM -SHRA BR OVC015 FM241500 19010KT P6SM -SHRA OVC025
KIPT 
36nm SW 
231740Z 2318/2418 10003KT P6SM FEW019 BKN024 OVC030 TEMPO 2318/2322 14010G18KT BKN035 FM240100 11012KT P6SM OVC050 WS020/16040KT FM240500 11012KT 5SM -SHRA OVC005 FM241200 21003KT 5SM BR OVC015 FM241600 20005KT P6SM OVC050
NOTAMs
Click for the latest NOTAMs
NOTAMs are issued by the DoD/FAA and will open in a separate window not controlled by AirNav.

 

 
 

FBO, Fuel Providers, and Aircraft Ground Support

  
 Business Name 
 
 Contact 
 
 Services / Description 
 
Fuel Prices
 
Comments
  
Bradford County Airport Authority 570-265-4900
no information available

If you are affiliated with Bradford County Airport Authority and would like to show here your services, contact info, web link, logo, and more, click here
100LL Jet A
SS $4.14 $3.55 
 Updated 18-Oct-2017
 
   4 read write
SS=Self service
Update Fuel Prices
 

Would you like to see your business listed on this page?

 If your business provides an interesting product or service to pilots, flight crews, aircraft, or users of the Bradford County Airport, you should consider listing it here.  To start the listing process, click on the button below
 
Add a business
 

Other Pages about Bradford County Airport

Update a link
 
Copyright © AirNav, LLC. All rights reserved. Privacy Policy  Contact